Time;durP1;ratioP1;P1;durP2;ratioP2;P2;SDS_P1;SDS_P2;PMS_P1;PMS_P2;Temp;Humidity;BMP_temperature;BMP_pressure;BME280_temperature;BME280_humidity;BME280_pressure;Samples;Min_cycle;Max_cycle;Signal;HPM_P1;HPM_P2
2022/05/11 00:00:09;;;;;;;15.02;8.05;;;;;;;13.25;100.00;94902.66;4795719;29;20433;-92
2022/05/11 00:02:37;;;;;;;15.30;7.38;;;;;;;13.30;100.00;94904.47;4795240;29;20026;-92
2022/05/11 00:05:06;;;;;;;20.48;8.07;;;;;;;13.38;100.00;94896.03;4795127;29;20027;-91
2022/05/11 00:07:32;;;;;;;18.65;7.50;;;;;;;13.49;100.00;94894.16;4795194;29;20169;-92
2022/05/11 00:09:57;;;;;;;16.40;7.80;;;;;;;13.49;100.00;94883.63;4780189;29;20129;-93
2022/05/11 00:12:23;;;;;;;19.50;7.88;;;;;;;13.49;100.00;94883.63;4780417;29;20027;-92
2022/05/11 00:14:52;;;;;;;19.15;7.53;;;;;;;13.46;100.00;94888.63;4779950;29;20030;-92
2022/05/11 00:17:17;;;;;;;24.23;8.48;;;;;;;13.48;100.00;94889.13;4780620;29;20034;-92
2022/05/11 00:19:43;;;;;;;26.10;8.25;;;;;;;13.34;100.00;94879.22;4794902;29;20050;-92
2022/05/11 00:22:08;;;;;;;15.48;7.97;;;;;;;13.37;100.00;94896.28;4794647;29;20022;-92
2022/05/11 00:24:36;;;;;;;20.05;7.82;;;;;;;12.99;100.00;94889.63;4794503;29;20030;-92
2022/05/11 00:27:02;;;;;;;18.83;8.50;;;;;;;12.65;100.00;94886.84;4794823;29;20449;-92
2022/05/11 00:29:28;;;;;;;16.20;8.50;;;;;;;12.60;100.00;94879.75;4779962;29;20126;-93
2022/05/11 00:31:54;;;;;;;20.70;8.68;;;;;;;12.39;100.00;94882.41;4795000;29;20031;-92
2022/05/11 00:34:20;;;;;;;12.00;7.55;;;;;;;12.78;100.00;94881.03;4794719;29;20031;-92
2022/05/11 00:36:46;;;;;;;19.30;8.35;;;;;;;13.07;100.00;94882.22;4794765;29;20034;-92
2022/05/11 00:39:12;;;;;;;16.40;7.68;;;;;;;13.18;100.00;94881.13;4794468;29;20023;-92
2022/05/11 00:41:41;;;;;;;15.55;8.15;;;;;;;13.16;100.00;94877.97;4794485;29;20042;-92
2022/05/11 00:44:09;;;;;;;20.45;7.90;;;;;;;13.24;100.00;94874.00;4780077;29;20077;-92
2022/05/11 00:46:39;;;;;;;19.80;6.93;;;;;;;13.27;100.00;94879.50;4794937;29;20118;-92
2022/05/11 00:49:38;;;;;;;22.90;8.00;;;;;;;13.39;100.00;94879.16;4779521;29;20099;-91
2022/05/11 00:52:12;;;;;;;19.45;7.18;;;;;;;13.46;100.00;94881.53;4782356;29;20039;-92
2022/05/11 00:54:41;;;;;;;18.20;7.40;;;;;;;13.54;100.00;94869.63;4794302;29;20034;-92
2022/05/11 00:57:14;;;;;;;19.15;6.90;;;;;;;13.63;100.00;94875.09;4794387;29;20117;-92
2022/05/11 00:59:43;;;;;;;21.10;7.30;;;;;;;13.48;100.00;94873.34;4794522;29;20023;-92
2022/05/11 01:02:09;;;;;;;21.80;7.57;;;;;;;13.47;100.00;94879.66;4793401;29;20031;-93
2022/05/11 01:04:39;;;;;;;14.18;6.90;;;;;;;13.38;100.00;94872.34;4794428;29;20041;-92
2022/05/11 01:07:04;;;;;;;15.93;7.43;;;;;;;13.31;100.00;94874.47;4808901;29;20056;-92
2022/05/11 01:09:30;;;;;;;13.77;6.97;;;;;;;13.17;100.00;94876.91;4793983;29;20038;-93
2022/05/11 01:11:58;;;;;;;13.80;7.32;;;;;;;13.13;100.00;94870.63;4779398;29;20034;-92
2022/05/11 01:14:28;;;;;;;15.23;8.02;;;;;;;13.08;100.00;94876.69;4793790;29;20037;-93
2022/05/11 01:16:55;;;;;;;15.25;7.45;;;;;;;13.07;100.00;94874.31;4794511;29;20041;-92
2022/05/11 01:19:33;;;;;;;13.18;6.82;;;;;;;13.11;100.00;94884.03;4794620;29;20026;-92
2022/05/11 01:22:14;;;;;;;20.13;7.28;;;;;;;13.28;100.00;94878.44;4794189;29;20031;-92
2022/05/11 01:24:42;;;;;;;15.98;7.00;;;;;;;13.19;100.00;94869.53;4794243;29;20023;-92
2022/05/11 01:27:41;;;;;;;21.70;7.05;;;;;;;13.29;100.00;94866.88;4794137;29;20030;-92
2022/05/11 01:30:14;;;;;;;12.38;6.78;;;;;;;13.10;100.00;94871.16;4759230;29;20116;-92
2022/05/11 01:33:06;;;;;;;17.98;7.50;;;;;;;12.79;100.00;94879.16;4793966;29;20038;-92
2022/05/11 01:35:58;;;;;;;18.35;6.97;;;;;;;12.84;100.00;94872.06;4793933;29;20038;-91
2022/05/11 01:38:36;;;;;;;11.85;6.97;;;;;;;12.86;100.00;94875.19;4794053;29;20053;-92
2022/05/11 01:41:04;;;;;;;10.25;6.75;;;;;;;12.79;100.00;94872.06;4794036;29;20078;-93
2022/05/11 01:43:35;;;;;;;14.85;7.28;;;;;;;12.82;100.00;94878.63;4796874;29;20348;-92
2022/05/11 01:46:02;;;;;;;14.40;6.90;;;;;;;12.67;100.00;94876.84;4795163;29;20037;-92
2022/05/11 01:48:28;;;;;;;11.82;7.35;;;;;;;12.62;100.00;94872.38;4787847;29;20430;-92
2022/05/11 01:50:54;;;;;;;13.00;7.00;;;;;;;12.58;100.00;94876.59;4797914;29;20031;-92
2022/05/11 01:53:19;;;;;;;13.63;6.43;;;;;;;12.51;100.00;94879.50;4780084;29;20035;-93
2022/05/11 01:55:45;;;;;;;24.15;7.90;;;;;;;12.41;100.00;94880.31;4778940;29;20038;-92
2022/05/11 01:58:21;;;;;;;15.98;6.82;;;;;;;12.41;100.00;94882.16;4793626;29;20349;-93
2022/05/11 02:00:47;;;;;;;17.10;7.47;;;;;;;12.41;100.00;94884.78;4779826;29;20038;-93
2022/05/11 02:03:48;;;;;;;13.75;7.00;;;;;;;12.40;100.00;94880.59;4779067;29;20069;-92
2022/05/11 02:08:58;;;;;;;20.92;7.50;;;;;;;12.09;100.00;94872.75;4795812;29;20356;-92
2022/05/11 02:11:23;;;;;;;16.83;7.80;;;;;;;12.22;100.00;94876.66;4793483;29;20030;-92
2022/05/11 02:13:51;;;;;;;15.90;6.93;;;;;;;12.21;100.00;94875.88;4779749;29;20031;-92
2022/05/11 02:16:16;;;;;;;12.30;7.07;;;;;;;12.17;100.00;94880.06;4789675;29;20374;-93
2022/05/11 02:18:42;;;;;;;19.35;7.75;;;;;;;12.18;100.00;94875.63;4799897;29;20071;-92
2022/05/11 02:21:08;;;;;;;15.75;7.93;;;;;;;12.05;100.00;94872.47;4799864;29;20041;-92
2022/05/11 02:23:37;;;;;;;18.30;8.15;;;;;;;11.93;100.00;94879.81;4799743;29;20351;-92
2022/05/11 02:26:03;;;;;;;15.20;7.13;;;;;;;11.92;100.00;94875.59;4814587;29;20033;-92
2022/05/11 02:28:29;;;;;;;18.13;7.30;;;;;;;12.11;100.00;94875.88;4799556;29;20086;-93
2022/05/11 02:30:57;;;;;;;26.27;7.90;;;;;;;12.06;100.00;94876.69;4799671;29;20034;-92
2022/05/11 02:33:23;;;;;;;16.27;7.57;;;;;;;12.05;100.00;94872.47;4799638;29;20034;-92
2022/05/11 02:35:53;;;;;;;14.68;7.63;;;;;;;12.09;100.00;94878.00;4799590;29;20382;-92
2022/05/11 02:38:26;;;;;;;19.25;8.10;;;;;;;12.15;100.00;94877.72;4799481;29;20030;-92
2022/05/11 02:40:52;;;;;;;20.20;7.50;;;;;;;12.18;100.00;94878.25;4799382;29;20445;-92
2022/05/11 02:43:28;;;;;;;;;;;;;;;;;;;;;
2022/05/11 02:45:54;;;;;;;19.85;7.22;;;;;;;12.37;100.00;94883.75;4815547;29;20029;-92
2022/05/11 02:48:25;;;;;;;12.93;6.32;;;;;;;12.47;100.00;94875.81;4799250;29;20128;-92
2022/05/11 02:50:53;;;;;;;19.58;7.72;;;;;;;12.34;100.00;94874.53;4799047;29;20049;-92
2022/05/11 02:53:20;;;;;;;18.00;7.70;;;;;;;12.04;100.00;94870.91;4814294;29;20129;-93
2022/05/11 02:55:48;;;;;;;10.13;6.95;;;;;;;12.09;100.00;94867.50;4799217;29;20344;-92
2022/05/11 02:58:15;;;;;;;12.40;6.63;;;;;;;12.06;100.00;94870.66;4799389;29;20091;-92
2022/05/11 03:00:43;;;;;;;11.65;7.07;;;;;;;12.11;100.00;94871.41;4799280;29;20026;-92
2022/05/11 03:03:10;;;;;;;18.15;7.15;;;;;;;12.22;100.00;94872.22;4799322;29;20070;-93
2022/05/11 03:05:36;;;;;;;10.13;6.85;;;;;;;12.32;100.00;94875.84;4799156;29;20037;-92
2022/05/11 03:08:05;;;;;;;12.60;7.00;;;;;;;12.28;100.00;94873.75;4814285;29;20034;-92
2022/05/11 03:10:31;;;;;;;17.08;7.32;;;;;;;12.40;100.00;94881.34;4799738;29;20364;-92
2022/05/11 03:12:57;;;;;;;14.43;6.78;;;;;;;12.76;100.00;94874.44;4783260;29;20437;-92
2022/05/11 03:15:23;;;;;;;13.50;6.72;;;;;;;12.75;100.00;94878.13;4799460;29;20042;-92
2022/05/11 03:17:49;;;;;;;13.07;6.50;;;;;;;12.73;100.00;94871.31;4798892;29;20174;-92
2022/05/11 03:20:14;;;;;;;13.00;6.57;;;;;;;12.69;100.00;94872.09;4799178;29;20030;-92
2022/05/11 03:26:02;;;;;;;11.98;5.85;;;;;;;12.69;100.00;94872.09;4829166;29;20041;-92
2022/05/11 03:28:28;;;;;;;13.35;6.80;;;;;;;12.70;100.00;94868.41;4798692;29;20034;-93
2022/05/11 03:30:53;;;;;;;16.27;6.78;;;;;;;12.81;100.00;94869.97;4813408;29;20352;-92
2022/05/11 03:36:04;;;;;;;14.52;6.60;;;;;;;12.19;100.00;94858.81;4815767;29;20487;-92
2022/05/11 03:38:30;;;;;;;13.85;6.43;;;;;;;11.85;100.00;94866.16;4798407;29;20061;-92
2022/05/11 03:40:56;;;;;;;14.80;6.85;;;;;;;12.11;100.00;94871.41;4798193;29;20038;-91
2022/05/11 03:43:21;;;;;;;18.02;7.13;;;;;;;12.06;100.00;94875.91;4798320;29;20038;-92
2022/05/11 03:45:47;;;;;;;13.52;7.30;;;;;;;11.81;100.00;94877.44;4798323;29;20038;-92
2022/05/11 03:48:13;;;;;;;13.40;7.38;;;;;;;11.68;100.00;94882.16;4798351;29;20038;-92
2022/05/11 03:50:39;;;;;;;13.93;7.65;;;;;;;11.64;100.00;94875.84;4813303;29;20433;-91
2022/05/11 03:53:04;;;;;;;17.10;7.28;;;;;;;11.73;100.00;94876.91;4798445;29;20050;-91
2022/05/11 03:55:30;;;;;;;13.05;6.50;;;;;;;11.91;100.00;94881.91;4798313;29;20038;-90
2022/05/11 03:58:03;;;;;;;15.48;6.60;;;;;;;12.15;100.00;94884.81;4798237;29;20034;-92
2022/05/11 04:00:28;;;;;;;19.63;7.40;;;;;;;12.32;100.00;94881.09;4799140;29;20058;-92
2022/05/11 04:02:58;;;;;;;17.25;7.28;;;;;;;11.92;100.00;94873.78;4813087;29;20069;-92
2022/05/11 04:05:28;;;;;;;17.40;8.25;;;;;;;11.94;100.00;94876.13;4812991;29;20401;-92
2022/05/11 04:07:53;;;;;;;12.55;7.20;;;;;;;11.99;100.00;94884.00;4798068;29;20038;-92
2022/05/11 04:10:19;;;;;;;14.02;7.32;;;;;;;11.87;100.00;94879.81;4797978;29;20034;-91
2022/05/11 04:12:45;;;;;;;15.00;6.90;;;;;;;12.00;100.00;94880.34;4819300;29;20132;-91
2022/05/11 04:15:11;;;;;;;13.70;6.80;;;;;;;12.37;100.00;94881.13;4813029;29;20034;-90
2022/05/11 04:17:37;;;;;;;15.80;6.72;;;;;;;12.53;100.00;94876.59;4812917;29;20038;-90
2022/05/11 04:20:05;;;;;;;9.95;5.97;;;;;;;12.91;100.00;94884.13;4828235;29;20030;-90
2022/05/11 04:22:30;;;;;;;17.65;7.38;;;;;;;12.86;100.00;94880.44;4812741;29;20509;-91
2022/05/11 04:24:57;;;;;;;13.35;6.88;;;;;;;12.63;100.00;94886.34;4812841;29;20038;-91
2022/05/11 04:27:23;;;;;;;19.30;7.45;;;;;;;12.48;100.00;94892.41;4812808;29;20035;-91
2022/05/11 04:29:48;;;;;;;11.00;5.80;;;;;;;12.50;100.00;94885.03;4812821;29;20049;-91
2022/05/11 04:32:15;;;;;;;20.17;7.30;;;;;;;12.57;100.00;94886.31;4812670;29;20129;-92
2022/05/11 04:34:41;;;;;;;15.52;5.95;;;;;;;12.71;100.00;94891.03;4812661;29;20425;-90
2022/05/11 04:37:07;;;;;;;17.00;6.90;;;;;;;12.77;100.00;94897.06;4811616;29;20042;-92
2022/05/11 04:39:33;;;;;;;16.63;6.15;;;;;;;12.66;100.00;94898.94;4809512;29;20038;-90
2022/05/11 04:41:59;;;;;;;15.98;6.70;;;;;;;12.66;100.00;94901.56;4812228;29;20054;-90
2022/05/11 04:44:25;;;;;;;16.02;6.63;;;;;;;12.77;100.00;94897.06;4790775;29;20087;-91
2022/05/11 04:46:50;;;;;;;14.60;6.88;;;;;;;12.76;100.00;94903.38;4779429;29;20434;-90
2022/05/11 04:49:17;;;;;;;13.00;6.57;;;;;;;12.75;100.00;94910.47;4779340;29;20155;-90
2022/05/11 04:51:43;;;;;;;11.82;6.60;;;;;;;12.80;100.00;94907.84;4779230;29;20039;-92
2022/05/11 04:54:09;;;;;;;14.75;6.00;;;;;;;12.97;100.00;94912.75;4779239;29;20449;-93
2022/05/11 04:56:37;;;;;;;8.82;5.45;;;;;;;13.09;100.00;94916.94;4786080;29;20097;-93
2022/05/11 04:59:03;;;;;;;19.60;5.60;;;;;;;13.19;100.00;94921.34;4797522;29;20339;-93
2022/05/11 05:01:28;;;;;;;14.98;6.05;;;;;;;13.34;100.00;94923.94;4797454;29;20129;-93
2022/05/11 05:03:54;;;;;;;10.43;6.20;;;;;;;13.44;100.00;94917.88;4803326;29;20031;-91
2022/05/11 05:06:19;;;;;;;13.95;6.15;;;;;;;13.54;100.00;94922.28;4779528;29;20027;-92
2022/05/11 05:08:45;;;;;;;14.68;5.88;;;;;;;13.73;100.00;94913.75;4779502;29;20337;-93
2022/05/11 05:11:13;;;;;;;12.55;5.75;;;;;;;13.88;100.00;94918.91;4794476;29;20129;-91
2022/05/11 05:13:38;;;;;;;10.07;5.78;;;;;;;13.91;100.00;94934.16;4794133;29;20035;-91
2022/05/11 05:16:04;;;;;;;11.80;5.45;;;;;;;14.05;100.00;94923.81;4795547;29;20037;-91
2022/05/11 05:18:37;;;;;;;10.30;5.50;;;;;;;14.11;100.00;94929.81;4811955;29;20038;-92
2022/05/11 05:21:03;;;;;;;9.70;5.50;;;;;;;14.17;100.00;94928.72;4798094;29;20428;-91
2022/05/11 05:23:28;;;;;;;20.08;5.93;;;;;;;14.31;100.00;94928.06;4797353;29;20063;-91
2022/05/11 05:25:54;;;;;;;19.25;6.00;;;;;;;14.21;100.00;94932.38;4797174;29;20079;-92
2022/05/11 05:31:11;;;;;;;10.38;5.05;;;;;;;14.75;100.00;94924.53;4787130;29;20094;-91
2022/05/11 05:33:41;;;;;;;13.45;5.95;;;;;;;14.87;100.00;94931.28;4797573;29;20097;-90
2022/05/11 05:36:07;;;;;;;13.88;5.47;;;;;;;15.00;100.00;94935.88;4812277;29;20034;-92
2022/05/11 05:38:36;;;;;;;19.02;5.55;;;;;;;15.21;100.00;94931.16;4796836;29;20041;-92
2022/05/11 05:41:02;;;;;;;11.40;5.35;;;;;;;15.37;100.00;94938.88;4812222;29;20153;-92
2022/05/11 05:43:28;;;;;;;13.18;6.47;;;;;;;14.90;100.00;94933.34;4811844;29;20134;-92
2022/05/11 05:45:54;;;;;;;17.58;6.32;;;;;;;14.75;100.00;94936.94;4796785;29;20133;-92
2022/05/11 05:48:20;;;;;;;18.70;6.30;;;;;;;14.71;100.00;94939.31;4797325;29;20447;-92
2022/05/11 05:50:49;;;;;;;10.60;6.30;;;;;;;14.84;100.00;94943.16;4800476;29;20038;-92
2022/05/11 05:53:19;;;;;;;18.27;6.50;;;;;;;14.97;100.00;94936.44;4815599;29;20034;-92
2022/05/11 05:55:46;;;;;;;18.45;8.02;;;;;;;14.78;100.00;94939.00;4800761;29;20037;-92
2022/05/11 05:58:12;;;;;;;8.63;6.07;;;;;;;15.07;100.00;94948.75;4800453;29;20445;-91
2022/05/11 06:00:37;;;;;;;15.43;6.03;;;;;;;15.10;100.00;94948.16;4815532;29;20038;-92
2022/05/11 06:03:04;;;;;;;10.27;6.10;;;;;;;15.44;100.00;94954.38;4800422;29;20186;-92
2022/05/11 06:05:29;;;;;;;10.77;6.05;;;;;;;15.63;100.00;94957.81;4800297;29;20340;-92
2022/05/11 06:07:56;;;;;;;18.27;6.28;;;;;;;15.74;100.00;94960.31;4800342;29;20041;-92
2022/05/11 06:10:24;;;;;;;15.50;6.40;;;;;;;15.77;100.00;94957.09;4799864;29;20448;-92
2022/05/11 06:12:49;;;;;;;12.82;6.55;;;;;;;15.74;100.00;94952.41;4799907;29;20134;-92
2022/05/11 06:15:15;;;;;;;13.60;6.40;;;;;;;15.91;100.00;94959.88;4814808;29;20034;-92
2022/05/11 06:17:40;;;;;;;13.60;5.78;;;;;;;15.95;100.00;94961.66;4799943;29;20030;-92
2022/05/11 06:20:08;;;;;;;14.82;6.45;;;;;;;15.87;100.00;94964.91;4800044;29;20027;-92
2022/05/11 06:22:34;;;;;;;11.35;5.47;;;;;;;16.20;100.00;94959.69;4800029;29;20034;-92
2022/05/11 06:25:00;;;;;;;13.90;6.32;;;;;;;16.17;100.00;94967.44;4814606;29;20030;-91
2022/05/11 06:27:26;;;;;;;11.63;5.55;;;;;;;16.39;100.00;94967.59;4799712;29;20429;-92
2022/05/11 06:30:01;;;;;;;10.43;5.75;;;;;;;16.16;100.00;94964.00;4815077;29;20038;-92
2022/05/11 06:32:32;;;;;;;12.65;5.57;;;;;;;16.39;100.00;94961.53;4799703;29;20031;-91
2022/05/11 06:34:58;;;;;;;10.25;6.43;;;;;;;16.60;100.00;94969.91;4799737;29;20137;-92
2022/05/11 06:37:24;;;;;;;10.45;5.90;;;;;;;16.78;100.00;94964.84;4799615;29;20057;-92
2022/05/11 06:39:50;;;;;;;13.02;5.55;;;;;;;16.98;100.00;94965.56;4814534;29;20079;-92
2022/05/11 06:42:16;;;;;;;10.57;5.63;;;;;;;17.00;100.00;94966.88;4799525;29;20048;-92
2022/05/11 06:44:42;;;;;;;11.65;6.20;;;;;;;16.92;100.00;94970.16;4799553;29;20034;-91
2022/05/11 06:47:07;;;;;;;13.80;5.80;;;;;;;17.07;100.00;94966.47;4799567;29;20045;-91
2022/05/11 06:49:33;;;;;;;11.00;6.03;;;;;;;17.18;100.00;94961.78;4814160;29;20111;-91
2022/05/11 06:51:59;;;;;;;14.65;6.00;;;;;;;17.33;100.00;94966.00;4799567;29;20034;-91
2022/05/11 06:59:54;;;;;;;15.38;5.78;;;;;;;17.59;100.00;94971.56;4816139;29;20045;-92
2022/05/11 07:02:20;;;;;;;15.40;6.15;;;;;;;17.59;100.00;94968.91;4799019;29;20029;-91
2022/05/11 07:04:45;;;;;;;14.38;6.03;;;;;;;17.65;100.00;94973.03;4799449;29;20121;-92
2022/05/11 07:07:11;;;;;;;12.75;5.45;;;;;;;17.68;100.00;94968.97;4814022;29;20034;-91
2022/05/11 07:09:37;;;;;;;12.90;6.25;;;;;;;17.55;100.00;94973.22;4799156;29;20041;-92
2022/05/11 07:12:19;;;;;;;18.92;5.95;;;;;;;17.73;100.00;94978.69;4798936;29;20069;-91
2022/05/11 07:14:49;;;;;;;15.43;5.93;;;;;;;17.84;100.00;94979.25;4815972;29;20041;-91
2022/05/11 07:17:33;;;;;;;15.98;6.07;;;;;;;17.65;100.00;94977.53;4813831;29;20034;-91
2022/05/11 07:20:01;;;;;;;14.88;6.07;;;;;;;17.92;100.00;94974.03;4799126;29;20027;-91
2022/05/11 07:22:26;;;;;;;14.32;6.35;;;;;;;17.97;100.00;94977.66;4799048;29;20041;-93
2022/05/11 07:24:52;;;;;;;12.43;6.00;;;;;;;18.21;100.00;94978.19;4813990;29;20034;-92
2022/05/11 07:27:18;;;;;;;9.38;5.05;;;;;;;18.42;100.00;94980.38;4799031;29;20041;-92
2022/05/11 07:29:44;;;;;;;10.65;5.57;;;;;;;18.55;100.00;94981.38;4813706;29;20122;-92
2022/05/11 07:32:10;;;;;;;13.63;5.63;;;;;;;18.34;100.00;94989.84;4799114;29;20041;-92
2022/05/11 07:34:37;;;;;;;13.60;5.85;;;;;;;18.37;100.00;94989.22;4798907;29;20322;-92
2022/05/11 07:37:03;;;;;;;11.60;5.45;;;;;;;18.40;100.00;94979.09;4798984;29;20030;-91
2022/05/11 07:39:28;;;;;;;14.40;5.30;;;;;;;18.05;100.00;94988.38;4798972;29;20030;-91
2022/05/11 07:41:55;;;;;;;13.20;5.80;;;;;;;18.51;100.00;94981.22;4798171;29;20042;-92
2022/05/11 07:44:21;;;;;;;9.40;5.80;;;;;;;18.60;100.00;94988.44;4813600;29;20408;-92
2022/05/11 07:46:47;;;;;;;12.68;5.85;;;;;;;18.67;100.00;94978.19;4798594;29;20062;-91
2022/05/11 07:49:13;;;;;;;9.85;5.78;;;;;;;18.74;100.00;94985.72;4798260;29;20035;-92
2022/05/11 07:51:41;;;;;;;15.90;6.47;;;;;;;19.07;100.00;94975.59;4798248;29;20509;-92
2022/05/11 07:54:07;;;;;;;12.98;5.07;;;;;;;19.26;100.00;94981.75;4798742;29;20463;-92
2022/05/11 08:02:00;;;;;;;15.50;5.63;;;;;;;19.33;100.00;94988.19;4815269;29;20041;-92
2022/05/11 08:04:26;;;;;;;15.07;5.60;;;;;;;19.45;100.00;94987.59;4812939;29;20034;-91
2022/05/11 08:06:51;;;;;;;13.43;5.38;;;;;;;19.63;100.00;94988.41;4813245;29;20030;-91
2022/05/11 08:09:17;;;;;;;16.35;5.28;;;;;;;19.45;100.00;94984.16;4798263;29;20136;-92
2022/05/11 08:11:43;;;;;;;22.27;5.30;;;;;;;19.61;100.00;94987.19;4813242;29;20034;-92
2022/05/11 08:14:08;;;;;;;10.60;5.72;;;;;;;19.86;100.00;94992.81;4797913;29;20057;-92
2022/05/11 08:16:34;;;;;;;18.05;6.22;;;;;;;19.79;100.00;94987.97;4797881;29;20034;-91
2022/05/11 08:19:00;;;;;;;9.13;5.72;;;;;;;19.90;100.00;94983.91;4812797;29;20053;-92
2022/05/11 08:21:26;;;;;;;12.57;6.10;;;;;;;19.92;100.00;94986.31;4798107;29;20034;-91
2022/05/11 08:23:51;;;;;;;13.70;6.00;;;;;;;19.90;100.00;94986.56;4797723;29;20390;-92
2022/05/11 08:26:17;;;;;;;15.52;5.93;;;;;;;19.71;100.00;94986.09;4797832;29;20037;-91
2022/05/11 08:28:42;;;;;;;14.60;5.55;;;;;;;20.08;100.00;94986.63;4797726;29;20030;-92
2022/05/11 08:33:52;;;;;;;16.08;5.95;;;;;;;20.16;100.00;94980.53;4814779;29;20361;-91
2022/05/11 08:36:20;;;;;;;9.73;5.68;;;;;;;20.38;100.00;94986.00;4797558;29;20034;-91
2022/05/11 08:38:49;;;;;;;14.00;5.70;;;;;;;20.36;100.00;94991.63;4797314;29;20128;-91
2022/05/11 08:41:33;;;;;;;12.48;5.88;;;;;;;19.97;100.00;94982.72;4812609;29;20481;-91
2022/05/11 08:44:13;;;;;;;14.73;5.93;;;;;;;20.27;100.00;94986.31;4797384;29;20030;-92
2022/05/11 08:46:47;;;;;;;15.00;5.80;;;;;;;20.64;100.00;94980.63;4812533;29;20062;-92
2022/05/11 08:49:22;;;;;;;10.82;5.55;;;;;;;20.62;100.00;94993.47;4812261;29;20075;-90
2022/05/11 08:52:05;;;;;;;17.35;5.80;;;;;;;20.70;100.00;94987.34;4812367;29;20041;-92
2022/05/11 08:54:40;;;;;;;11.45;5.00;;;;;;;20.73;100.00;94991.25;4797217;29;20044;-90
2022/05/11 08:57:09;;;;;;;12.93;4.93;;;;;;;20.89;92.68;94994.22;4812293;29;20045;-91
2022/05/11 08:59:37;;;;;;;17.20;5.20;;;;;;;21.02;100.00;94987.91;4797525;29;20108;-93
2022/05/11 09:02:06;;;;;;;9.13;4.60;;;;;;;21.06;100.00;94996.06;4797081;29;20042;-92
2022/05/11 09:04:51;;;;;;;12.55;5.13;;;;;;;21.26;100.00;94988.44;4812365;29;20509;-92
2022/05/11 09:07:16;;;;;;;9.98;4.95;;;;;;;20.66;100.00;94991.75;4812128;29;20457;-92
2022/05/11 09:09:42;;;;;;;7.85;4.78;;;;;;;20.96;100.00;94986.53;4811926;29;20135;-92
2022/05/11 09:12:10;;;;;;;9.93;4.53;;;;;;;21.36;100.00;94995.31;4797581;29;20041;-91
2022/05/11 09:15:03;;;;;;;15.82;4.75;;;;;;;21.54;100.00;94988.81;4797050;29;20069;-92
2022/05/11 09:17:32;;;;;;;11.98;4.15;;;;;;;21.36;99.20;94981.97;4795625;29;20038;-92
2022/05/11 09:20:15;;;;;;;12.13;4.38;;;;;;;21.69;100.00;94995.47;4811818;29;20039;-92
2022/05/11 09:22:58;;;;;;;15.32;4.22;;;;;;;21.44;84.25;94995.25;4811911;29;20059;-92
2022/05/11 09:25:26;;;;;;;7.20;4.23;;;;;;;21.41;85.45;94990.56;4811846;29;20038;-92
2022/05/11 09:27:53;;;;;;;14.13;3.78;;;;;;;21.43;69.65;94992.94;4797192;29;20101;-92
2022/05/11 09:30:20;;;;;;;13.85;3.40;;;;;;;21.47;68.72;94996.50;4812072;29;20045;-92
2022/05/11 09:32:46;;;;;;;7.32;3.40;;;;;;;21.51;73.52;94992.09;4812499;29;20034;-91
2022/05/11 09:35:14;;;;;;;7.68;3.17;;;;;;;21.46;59.55;94989.63;4796930;29;20086;-91
2022/05/11 09:37:42;;;;;;;13.00;2.70;;;;;;;21.57;56.10;94985.50;4811852;29;20357;-93
2022/05/11 09:40:21;;;;;;;6.50;2.80;;;;;;;21.89;64.22;94991.28;4797262;29;20026;-92
2022/05/11 09:42:56;;;;;;;9.65;3.65;;;;;;;21.98;76.62;94985.88;4796859;29;20038;-92
2022/05/11 09:45:39;;;;;;;7.75;3.40;;;;;;;21.98;63.04;94983.19;4812065;29;20441;-92
2022/05/11 09:48:25;;;;;;;10.23;3.20;;;;;;;21.86;64.28;94983.94;4796731;29;20034;-92
2022/05/11 09:50:56;;;;;;;8.73;3.25;;;;;;;21.88;66.56;94976.38;4796865;29;20034;-91
2022/05/11 09:53:27;;;;;;;8.60;3.08;;;;;;;22.23;67.64;94974.53;4797149;29;20394;-91
2022/05/11 09:55:53;;;;;;;9.82;3.60;;;;;;;22.12;58.91;94979.50;4796645;29;20035;-91
2022/05/11 09:58:39;;;;;;;18.20;4.43;;;;;;;22.34;63.24;94977.59;4796923;29;20129;-91
2022/05/11 10:01:33;;;;;;;8.27;4.18;;;;;;;22.25;63.31;94985.69;4811911;29;20030;-93
2022/05/11 10:04:05;;;;;;;9.68;3.80;;;;;;;22.17;60.80;94979.31;4826676;29;20046;-93
2022/05/11 10:06:35;;;;;;;14.00;3.87;;;;;;;22.48;62.73;94983.47;4797267;29;20037;-92
2022/05/11 10:09:00;;;;;;;19.83;4.22;;;;;;;22.22;59.95;94983.66;4796815;29;20315;-92
2022/05/11 10:11:36;;;;;;;6.53;3.92;;;;;;;22.22;68.62;94981.78;4796811;29;20062;-92
2022/05/11 10:23:05;;;;;;;22.25;4.65;;;;;;;22.76;82.02;94976.75;4813778;29;20357;-92
2022/05/11 10:25:41;;;;;;;12.07;4.40;;;;;;;22.83;68.27;94967.09;4826781;29;20038;-92
2022/05/11 10:28:14;;;;;;;11.20;4.32;;;;;;;22.48;66.79;94967.44;4811825;29;20034;-91
2022/05/11 10:30:58;;;;;;;12.90;4.35;;;;;;;23.01;71.60;94970.34;4811282;29;20129;-91
2022/05/11 10:33:51;;;;;;;15.75;3.80;;;;;;;23.08;65.15;94977.03;4826628;29;20117;-92
2022/05/11 10:36:25;;;;;;;8.57;3.70;;;;;;;22.84;63.50;94968.66;4829103;29;20116;-92
2022/05/11 10:39:13;;;;;;;9.38;4.22;;;;;;;22.58;58.24;94964.34;4800710;29;20034;-91
2022/05/11 10:41:59;;;;;;;8.90;3.90;;;;;;;22.92;66.30;94966.22;4813882;29;20046;-90
2022/05/11 10:44:30;;;;;;;11.45;3.38;;;;;;;22.94;65.88;94956.75;4829423;29;20045;-91
2022/05/11 10:47:23;;;;;;;8.38;3.53;;;;;;;23.15;58.78;94962.00;4814097;29;20183;-90
2022/05/11 10:50:26;;;;;;;8.90;4.00;;;;;;;23.32;61.25;94959.47;4814522;29;20488;-90
2022/05/11 10:53:20;;;;;;;11.85;4.43;;;;;;;23.20;65.74;94958.31;4811478;29;20133;-90
2022/05/11 10:55:46;;;;;;;11.60;3.67;;;;;;;23.22;63.19;94961.44;4802522;29;20047;-90
2022/05/11 10:58:42;;;;;;;13.27;4.30;;;;;;;23.46;60.63;94949.22;4819101;29;20034;-90
2022/05/11 11:01:13;;;;;;;13.65;4.68;;;;;;;23.40;73.72;94946.00;4814110;29;20034;-90
2022/05/11 11:04:13;;;;;;;11.60;4.43;;;;;;;23.44;66.50;94952.22;4798916;29;20057;-91
2022/05/11 11:07:16;;;;;;;11.75;4.25;;;;;;;23.39;73.60;94954.38;4798868;29;20523;-91
2022/05/11 11:10:39;;;;;;;17.73;5.40;;;;;;;23.12;77.53;94948.53;4799003;29;20034;-91
2022/05/11 11:13:13;;;;;;;9.15;4.20;;;;;;;23.52;69.80;94936.41;4812750;29;20428;-90
2022/05/11 11:15:42;;;;;;;12.73;4.97;;;;;;;23.83;74.34;94929.66;4813676;29;20429;-90
2022/05/11 11:18:11;;;;;;;10.10;4.78;;;;;;;23.81;72.54;94931.91;4813701;29;20212;-91
2022/05/11 11:20:38;;;;;;;11.10;5.07;;;;;;;24.11;100.00;94932.41;4798717;29;20027;-90
2022/05/11 11:23:06;;;;;;;8.85;5.32;;;;;;;24.13;85.34;94940.88;4813577;29;20437;-91
2022/05/11 11:25:53;;;;;;;11.80;4.63;;;;;;;23.60;76.69;94924.81;4798868;29;20348;-91
2022/05/11 11:28:52;;;;;;;12.85;5.43;;;;;;;23.94;90.86;94920.03;4798688;29;20043;-90
2022/05/11 11:31:22;;;;;;;12.45;5.40;;;;;;;24.13;100.00;94924.81;4798793;29;20034;-91
2022/05/11 11:33:54;;;;;;;10.30;5.18;;;;;;;24.01;74.20;94924.81;4813704;29;20030;-91
2022/05/11 11:36:30;;;;;;;9.80;4.72;;;;;;;24.17;74.37;94924.13;4813662;29;20133;-90
2022/05/11 11:38:58;;;;;;;8.35;4.25;;;;;;;23.73;65.79;94920.97;4813404;29;20034;-90
2022/05/11 11:41:31;;;;;;;13.45;4.68;;;;;;;23.95;88.18;94920.81;4813670;29;20042;-90
2022/05/11 11:44:02;;;;;;;12.32;4.57;;;;;;;24.10;78.02;94914.78;4813214;29;20133;-90
2022/05/11 11:46:36;;;;;;;12.70;4.55;;;;;;;24.15;66.51;94919.09;4812804;29;20106;-90
2022/05/11 11:49:09;;;;;;;19.58;5.55;;;;;;;24.17;78.18;94916.09;4813180;29;20034;-90
2022/05/11 11:51:54;;;;;;;;;;;;;;;24.69;73.47;94925.06;4799314;29;20030;-90
2022/05/11 11:54:34;;;;;;;12.57;5.05;;;;;;;24.75;74.12;94917.56;4813086;29;19913;-91
2022/05/11 11:57:01;;;;;;;14.45;5.22;;;;;;;24.13;75.96;94914.09;4796487;29;20062;-91
2022/05/11 11:59:28;;;;;;;12.50;5.93;;;;;;;23.86;73.68;94918.28;4780071;29;20034;-91
2022/05/11 12:01:57;;;;;;;12.18;5.03;;;;;;;23.99;77.50;94905.66;4807337;29;20040;-90
2022/05/11 12:04:59;;;;;;;15.85;5.50;;;;;;;24.27;90.19;94915.59;4797921;29;20117;-91
2022/05/11 12:16:10;;;;;;;15.75;5.95;;;;;;;25.20;82.98;94910.25;4809049;29;20038;-90
2022/05/11 12:18:43;;;;;;;14.00;5.50;;;;;;;25.18;71.06;94907.88;4797728;29;20110;-91